Bertram, TX

2:43 AM CST on December 22, 2014 (GMT -0600)
FaultLineFlyers Gliderport | Change Station
CLOSE
Current Station
Personal Weather Station
Location: Briggs, TX
Elevation: 1148 ft
Nearby Weather Stations

Elev 1148 ft 30.86 °N, 97.95 °W | Updated 3 minutes ago

Overcast
Overcast
54.3 °F
Feels Like 54.3 °F
N
21.0
Wind Variable Wind from SSW
Gusts 0.0 mph

Today
High -- | Low -- °F
--% Chance of Precip.
Yesterday
High -- | Low -- °F
Precip. -- in
7:26 AM 5:34 PM
New Moon, 0% visible
Pressure 29.74 in
Visibility 10.0 miles
Clouds Overcast 1600 ft
Dew Point 51 °F
Humidity 90%
Rainfall 0.00 in
Snow Depth Not available.
UV 0 out of 12
Pollen 8.40 out of 12
Air Quality Not available.
Flu Activity Not available.
METAR KGRK 220758Z AUTO 20011G20KT 10SM OVC016 13/10 A2974 RMK AO2 SLP070 T01280104

More Conditions Fewer Conditions

Pressure 29.74 in
Visibility 10.0 miles
Clouds Overcast 1600 ft
Dew Point 51 °F
Humidity 90%
Rainfall 0.00 in
Snow Depth Not available.
UV 0 out of 12
Pollen 8.40 out of 12
Air Quality Not available.
Flu Activity Not available.
METAR KGRK 220758Z AUTO 20011G20KT 10SM OVC016 13/10 A2974 RMK AO2 SLP070 T01280104

More Conditions Fewer Conditions

10-Day Weather Forecast

Almanac

Astronomy

Dec. 22, 2014 Rise Set
Actual Time
Civil Twilight
Nautical Twilight
Astronomical Twilight
Moon
Length of Visible Light
Length of Day
Tomorrow will be .
, % of the Moon is Illuminated

Today's Extremes

State Highs State Lows

Community

WunderPhotos

Upload Photos

1,779,580 photos uploaded!

WunderBlogs® & News

Nearby

Air Quality

  Air Quality AQ Index Pollutant
Not available.

Snow Depth

Station Depth Elevation

Earthquake Activity

City Distance Mag. Time & Date
Minimum magnitude displayed is 2.5.

Coastal Water Temperatures

Place Temperature

Nearby Weather Stations